Time;durP1;ratioP1;P1;durP2;ratioP2;P2;SDS_P1;SDS_P2;PMS_P1;PMS_P2;Temp;Humidity;BMP_temperature;BMP_pressure;BME280_temperature;BME280_humidity;BME280_pressure;Samples;Min_cycle;Max_cycle;Signal;HPM_P1;HPM_P2
2023/01/13 00:00:03;;;;;;;83.65;24.27;;;;;;;;;;10296787;28;20068;-64
2023/01/13 00:05:10;;;;;;;59.17;18.33;;;;;;;;;;10317164;28;20080;-64
2023/01/13 00:10:09;;;;;;;29.27;14.48;;;;;;;;;;10305281;28;20060;-64
2023/01/13 00:15:08;;;;;;;35.17;16.42;;;;;;;;;;10305091;28;20178;-65
2023/01/13 00:20:06;;;;;;;50.38;24.70;;;;;;;;;;10305132;28;20075;-63
2023/01/13 00:25:06;;;;;;;67.90;25.02;;;;;;;;;;10304807;28;20071;-64
2023/01/13 00:30:05;;;;;;;117.65;23.25;;;;;;;;;;10291094;28;20048;-64
2023/01/13 00:35:04;;;;;;;25.95;16.27;;;;;;;;;;10308675;28;20048;-64
2023/01/13 00:40:02;;;;;;;94.10;20.23;;;;;;;;;;10299984;28;20134;-64
2023/01/13 00:45:02;;;;;;;62.90;14.63;;;;;;;;;;10313200;28;20095;-63
2023/01/13 00:50:00;;;;;;;18.48;13.30;;;;;;;;;;10312363;28;20104;-64
2023/01/13 00:54:59;;;;;;;70.00;17.33;;;;;;;;;;10313080;28;20064;-63
2023/01/13 00:59:57;;;;;;;21.20;12.90;;;;;;;;;;10300023;28;20069;-64
2023/01/13 01:04:58;;;;;;;39.88;14.07;;;;;;;;;;10310834;28;20056;-64
2023/01/13 01:09:57;;;;;;;31.17;13.95;;;;;;;;;;10285797;28;20095;-64
2023/01/13 01:14:55;;;;;;;67.60;16.02;;;;;;;;;;10298693;28;20060;-64
2023/01/13 01:19:53;;;;;;;43.65;18.40;;;;;;;;;;10310262;28;20064;-64
2023/01/13 01:24:52;;;;;;;29.75;13.05;;;;;;;;;;10311228;28;20162;-64
2023/01/13 01:29:51;;;;;;;33.60;12.48;;;;;;;;;;10309612;28;20044;-63
2023/01/13 01:34:50;;;;;;;78.18;15.68;;;;;;;;;;10309884;28;20041;-63
2023/01/13 01:39:48;;;;;;;85.72;19.40;;;;;;;;;;10296802;28;20170;-64
2023/01/13 01:44:53;;;;;;;115.85;18.98;;;;;;;;;;10302661;28;20037;-64
2023/01/13 01:49:51;;;;;;;105.00;22.65;;;;;;;;;;10305594;28;20067;-64
2023/01/13 01:54:53;;;;;;;39.33;17.15;;;;;;;;;;10309196;28;20143;-64
2023/01/13 01:59:53;;;;;;;115.97;21.35;;;;;;;;;;10309150;28;20090;-64
2023/01/13 02:04:53;;;;;;;202.02;27.77;;;;;;;;;;10308963;28;20450;-63
2023/01/13 02:09:51;;;;;;;254.27;27.38;;;;;;;;;;10308719;28;20048;-65
2023/01/13 02:14:50;;;;;;;196.00;25.98;;;;;;;;;;10308527;28;20040;-64
2023/01/13 02:20:05;;;;;;;211.45;37.70;;;;;;;;;;10308143;28;20426;-64
2023/01/13 02:25:21;;;;;;;36.83;21.73;;;;;;;;;;10308632;28;20358;-64
2023/01/13 02:35:46;;;;;;;151.93;30.10;;;;;;;;;;10306663;28;20060;-64
2023/01/13 02:40:47;;;;;;;72.97;25.63;;;;;;;;;;10308521;28;20446;-64
2023/01/13 02:45:51;;;;;;;121.50;31.48;;;;;;;;;;10307578;28;20063;-64
2023/01/13 02:50:51;;;;;;;91.70;22.35;;;;;;;;;;10306983;28;20064;-64
2023/01/13 02:55:51;;;;;;;81.65;23.58;;;;;;;;;;10307739;28;20079;-63
2023/01/13 03:00:51;;;;;;;64.35;19.50;;;;;;;;;;10307634;28;20087;-64
2023/01/13 03:05:52;;;;;;;79.30;21.00;;;;;;;;;;10306563;28;20044;-64
2023/01/13 03:10:54;;;;;;;42.85;25.60;;;;;;;;;;10307361;28;20044;-65
2023/01/13 03:16:00;;;;;;;79.88;25.90;;;;;;;;;;10307784;28;20147;-65
2023/01/13 03:21:04;;;;;;;124.13;24.95;;;;;;;;;;10307509;28;20124;-64
2023/01/13 03:26:05;;;;;;;95.67;41.60;;;;;;;;;;10307011;28;20051;-65
2023/01/13 03:31:08;;;;;;;165.82;30.17;;;;;;;;;;10307854;28;20132;-65
2023/01/13 03:36:09;;;;;;;80.32;23.90;;;;;;;;;;10296114;28;20067;-64
2023/01/13 03:41:08;;;;;;;127.18;26.20;;;;;;;;;;10307890;28;20082;-64
2023/01/13 03:46:10;;;;;;;88.07;31.30;;;;;;;;;;10308000;28;20064;-64
2023/01/13 03:51:12;;;;;;;89.05;21.48;;;;;;;;;;10307937;28;20073;-64
2023/01/13 03:56:13;;;;;;;142.25;28.23;;;;;;;;;;10306837;28;20056;-65
2023/01/13 04:01:15;;;;;;;188.35;26.17;;;;;;;;;;10306848;28;20478;-65
2023/01/13 04:06:15;;;;;;;130.38;25.85;;;;;;;;;;10308279;28;20052;-64
2023/01/13 04:11:17;;;;;;;125.13;23.92;;;;;;;;;;10315091;28;20048;-65
2023/01/13 04:16:17;;;;;;;43.72;17.90;;;;;;;;;;10317044;28;20044;-65
2023/01/13 04:21:15;;;;;;;80.82;24.30;;;;;;;;;;10316062;28;20378;-66
2023/01/13 04:26:13;;;;;;;54.13;21.48;;;;;;;;;;10316710;28;20087;-64
2023/01/13 04:31:12;;;;;;;59.70;23.20;;;;;;;;;;10317346;28;20064;-66
2023/01/13 04:36:12;;;;;;;59.67;25.25;;;;;;;;;;10314516;28;20413;-65
2023/01/13 04:41:10;;;;;;;105.97;27.90;;;;;;;;;;10313979;28;20087;-65
2023/01/13 04:46:08;;;;;;;66.68;39.65;;;;;;;;;;10314106;28;20296;-66
2023/01/13 04:51:06;;;;;;;49.00;28.75;;;;;;;;;;10304975;28;20477;-64
2023/01/13 04:56:06;;;;;;;37.08;21.75;;;;;;;;;;10308993;28;20095;-65
2023/01/13 05:01:05;;;;;;;53.53;35.33;;;;;;;;;;10304189;28;20080;-65
2023/01/13 05:06:03;;;;;;;40.80;27.50;;;;;;;;;;10309822;28;20064;-65
2023/01/13 05:16:58;;;;;;;43.30;27.05;;;;;;;;;;10308613;28;20076;-66
2023/01/13 05:26:52;;;;;;;40.67;25.83;;;;;;;;;;10275997;28;20096;-66
2023/01/13 05:31:52;;;;;;;30.98;22.65;;;;;;;;;;10297798;28;20164;-65
2023/01/13 05:36:50;;;;;;;27.63;17.25;;;;;;;;;;10297453;28;20119;-65
2023/01/13 05:47:03;;;;;;;;;;;;;;;;;;10301257;28;20061;-66
2023/01/13 05:52:03;;;;;;;38.22;23.50;;;;;;;;;;10269764;28;19955;-65
2023/01/13 05:57:01;;;;;;;43.08;27.40;;;;;;;;;;10273627;28;20060;-65
2023/01/13 06:01:59;;;;;;;57.70;36.33;;;;;;;;;;10271460;28;20072;-65
2023/01/13 06:06:57;;;;;;;48.67;31.08;;;;;;;;;;10275519;28;20040;-66
2023/01/13 06:11:57;;;;;;;31.77;20.90;;;;;;;;;;10290976;28;20044;-66
2023/01/13 06:16:55;;;;;;;26.38;18.98;;;;;;;;;;10309816;28;20079;-67
2023/01/13 06:21:56;;;;;;;35.17;25.63;;;;;;;;;;10270508;28;20064;-65
2023/01/13 06:26:54;;;;;;;35.60;23.73;;;;;;;;;;10289257;28;20036;-65
2023/01/13 06:31:54;;;;;;;36.15;25.33;;;;;;;;;;10268995;28;20076;-65
2023/01/13 06:36:53;;;;;;;38.85;28.23;;;;;;;;;;10261709;28;20512;-66
2023/01/13 06:47:09;;;;;;;34.80;24.92;;;;;;;;;;10279648;28;20512;-65
2023/01/13 06:52:08;;;;;;;38.75;26.45;;;;;;;;;;10285307;28;20441;-65
2023/01/13 06:57:06;;;;;;;39.67;28.60;;;;;;;;;;10287402;28;20072;-64
2023/01/13 07:02:04;;;;;;;45.05;31.08;;;;;;;;;;10269360;28;20064;-65
2023/01/13 07:07:04;;;;;;;64.78;39.38;;;;;;;;;;10268995;28;20056;-65
2023/01/13 07:12:02;;;;;;;66.80;42.22;;;;;;;;;;10269391;28;20084;-64
2023/01/13 07:17:01;;;;;;;80.22;45.28;;;;;;;;;;10282099;28;20520;-65
2023/01/13 07:21:59;;;;;;;52.55;33.85;;;;;;;;;;10272057;28;20076;-63
2023/01/13 07:26:59;;;;;;;47.15;31.15;;;;;;;;;;10273060;28;20077;-65
2023/01/13 07:31:57;;;;;;;61.95;35.13;;;;;;;;;;10273002;28;20049;-63
2023/01/13 07:36:56;;;;;;;43.85;28.08;;;;;;;;;;10274583;28;20068;-63
2023/01/13 07:47:11;;;;;;;31.33;23.83;;;;;;;;;;10277067;28;20167;-63
2023/01/13 07:52:09;;;;;;;32.60;23.48;;;;;;;;;;10282811;28;20088;-63
2023/01/13 07:57:08;;;;;;;32.55;20.38;;;;;;;;;;10281394;28;20052;-65
2023/01/13 08:02:06;;;;;;;27.35;18.83;;;;;;;;;;10277096;28;20060;-63
2023/01/13 08:07:06;;;;;;;39.83;27.05;;;;;;;;;;10280399;28;20123;-63
2023/01/13 08:17:19;;;;;;;;;;;;;;;;;;10278437;28;20098;-63
2023/01/13 08:22:19;;;;;;;40.85;34.90;;;;;;;;;;10277628;28;19979;-63
2023/01/13 08:27:19;;;;;;;25.73;19.10;;;;;;;;;;10279828;28;20065;-63
2023/01/13 08:32:17;;;;;;;33.63;24.58;;;;;;;;;;10274851;28;20045;-63
2023/01/13 08:37:15;;;;;;;31.17;22.38;;;;;;;;;;10276666;28;20088;-64
2023/01/13 08:42:15;;;;;;;23.88;19.58;;;;;;;;;;10284224;28;20065;-64
2023/01/13 08:47:13;;;;;;;24.95;19.85;;;;;;;;;;10276899;28;20056;-64
2023/01/13 08:52:11;;;;;;;24.95;19.50;;;;;;;;;;10276260;28;20088;-63
2023/01/13 08:57:09;;;;;;;22.80;19.52;;;;;;;;;;10279558;28;20061;-63
2023/01/13 09:02:12;;;;;;;32.08;25.30;;;;;;;;;;10276266;28;20080;-64
2023/01/13 09:07:11;;;;;;;29.60;24.27;;;;;;;;;;10278063;28;20091;-63
2023/01/13 09:17:27;;;;;;;25.92;21.40;;;;;;;;;;10314111;28;20421;-63
2023/01/13 09:22:26;;;;;;;46.28;34.63;;;;;;;;;;10316636;28;20502;-63
2023/01/13 09:27:24;;;;;;;53.35;47.72;;;;;;;;;;10309060;28;20076;-63
2023/01/13 09:32:22;;;;;;;49.50;44.35;;;;;;;;;;10275376;28;20079;-63
2023/01/13 09:37:22;;;;;;;28.73;25.67;;;;;;;;;;10279794;28;20064;-63
2023/01/13 09:47:42;;;;;;;65.18;51.90;;;;;;;;;;10274418;28;20065;-63
2023/01/13 09:52:42;;;;;;;29.33;25.35;;;;;;;;;;10272768;28;20077;-63
2023/01/13 09:57:41;;;;;;;21.15;18.65;;;;;;;;;;10306321;28;20075;-65
2023/01/13 10:02:56;;;;;;;23.48;17.95;;;;;;;;;;10292299;28;20483;-64
2023/01/13 10:07:58;;;;;;;20.42;18.30;;;;;;;;;;10275973;28;20080;-64
2023/01/13 10:13:14;;;;;;;18.08;15.57;;;;;;;;;;10273805;28;20522;-64
2023/01/13 10:18:14;;;;;;;21.85;17.77;;;;;;;;;;10277189;28;20513;-64
2023/01/13 10:23:26;;;;;;;24.75;18.25;;;;;;;;;;10274274;28;20076;-63
2023/01/13 10:28:25;;;;;;;22.88;18.25;;;;;;;;;;10271927;28;20454;-64
2023/01/13 10:33:27;;;;;;;20.80;18.42;;;;;;;;;;10272909;28;20061;-63
2023/01/13 10:38:28;;;;;;;19.40;15.45;;;;;;;;;;10270625;28;20413;-63
2023/01/13 10:43:26;;;;;;;21.02;16.75;;;;;;;;;;10287857;28;20068;-64
2023/01/13 10:48:32;;;;;;;21.20;16.20;;;;;;;;;;10284459;28;20068;-63
2023/01/13 10:53:31;;;;;;;13.18;11.50;;;;;;;;;;10271297;28;20073;-63
2023/01/13 10:58:30;;;;;;;17.77;14.98;;;;;;;;;;10273534;28;20822;-64
2023/01/13 11:03:35;;;;;;;14.32;12.65;;;;;;;;;;10270865;28;20080;-64
2023/01/13 11:08:43;;;;;;;18.83;16.10;;;;;;;;;;10270792;28;20551;-64
2023/01/13 11:14:31;;;;;;;19.52;15.27;;;;;;;;;;10272018;28;20064;-64
2023/01/13 11:19:10;;;;;;;14.82;11.73;;;;;;;;;;10299729;28;20047;-64
2023/01/13 11:24:15;;;;;;;17.50;15.65;;;;;;;;;;10274401;28;20076;-64
2023/01/13 11:29:16;;;;;;;14.50;12.23;;;;;;;;;;10274628;28;20096;-65
2023/01/13 11:34:21;;;;;;;11.10;10.00;;;;;;;;;;10272059;28;20049;-65
2023/01/13 11:39:23;;;;;;;9.35;8.45;;;;;;;;;;10310142;28;20044;-65
2023/01/13 11:44:25;;;;;;;20.95;16.02;;;;;;;;;;10298338;28;20433;-65
2023/01/13 11:49:26;;;;;;;19.23;17.23;;;;;;;;;;10281226;28;20049;-66
2023/01/13 11:54:32;;;;;;;22.00;16.63;;;;;;;;;;10276438;28;20049;-63
2023/01/13 11:59:47;;;;;;;13.50;12.00;;;;;;;;;;10285260;28;20087;-64
2023/01/13 12:04:51;;;;;;;28.17;24.43;;;;;;;;;;10272815;28;20077;-65
2023/01/13 12:09:57;;;;;;;39.92;29.95;;;;;;;;;;10286841;28;20317;-65
2023/01/13 12:15:02;;;;;;;22.92;19.90;;;;;;;;;;10286674;28;20076;-65
2023/01/13 12:20:07;;;;;;;20.42;17.45;;;;;;;;;;10278569;28;20052;-64
2023/01/13 12:25:13;;;;;;;29.65;26.45;;;;;;;;;;10269911;28;20061;-65
2023/01/13 12:30:17;;;;;;;24.98;18.98;;;;;;;;;;10276414;28;20076;-66
2023/01/13 12:35:23;;;;;;;17.13;14.68;;;;;;;;;;10286453;28;20085;-66
2023/01/13 12:40:37;;;;;;;27.40;19.60;;;;;;;;;;10269021;28;20443;-65
2023/01/13 12:45:35;;;;;;;20.23;18.23;;;;;;;;;;10273442;28;20060;-65
2023/01/13 12:50:41;;;;;;;35.53;29.85;;;;;;;;;;10278326;28;20069;-64
2023/01/13 12:55:40;;;;;;;30.58;22.35;;;;;;;;;;10278186;28;20085;-64
2023/01/13 13:00:53;;;;;;;34.30;24.98;;;;;;;;;;10292207;28;20073;-64
2023/01/13 13:05:56;;;;;;;30.60;26.95;;;;;;;;;;10274877;28;20077;-65
2023/01/13 13:11:00;;;;;;;20.15;17.80;;;;;;;;;;10306589;28;20056;-64
2023/01/13 13:16:28;;;;;;;26.45;23.08;;;;;;;;;;10315306;28;20037;-64
2023/01/13 13:21:47;;;;;;;19.33;17.23;;;;;;;;;;10263883;28;20085;-64
2023/01/13 13:26:46;;;;;;;22.17;17.95;;;;;;;;;;10269685;28;20466;-64
2023/01/13 13:31:56;;;;;;;51.03;35.78;;;;;;;;;;10271217;28;20506;-64
2023/01/13 13:37:04;;;;;;;21.95;19.65;;;;;;;;;;10268927;28;20072;-63
2023/01/13 13:47:24;;;;;;;17.08;14.30;;;;;;;;;;10284005;28;20072;-64
2023/01/13 13:52:26;;;;;;;25.13;21.30;;;;;;;;;;10271018;28;20111;-64
2023/01/13 13:57:30;;;;;;;22.73;20.35;;;;;;;;;;10285313;28;20505;-63
2023/01/13 14:02:29;;;;;;;22.73;20.40;;;;;;;;;;10278638;28;20064;-64
2023/01/13 14:07:27;;;;;;;35.17;27.63;;;;;;;;;;10271861;28;20033;-64
2023/01/13 14:12:29;;;;;;;44.25;34.60;;;;;;;;;;10274102;28;20459;-63
2023/01/13 14:17:28;;;;;;;46.17;33.45;;;;;;;;;;10276080;28;20445;-64
2023/01/13 14:22:28;;;;;;;54.15;42.53;;;;;;;;;;10270108;28;20056;-64
2023/01/13 14:27:29;;;;;;;39.38;30.00;;;;;;;;;;10270255;28;20076;-65
2023/01/13 14:32:31;;;;;;;35.75;26.27;;;;;;;;;;10280301;28;20079;-64
2023/01/13 14:37:32;;;;;;;28.80;24.52;;;;;;;;;;10262231;28;20092;-62
2023/01/13 14:42:34;;;;;;;23.42;17.33;;;;;;;;;;10268658;28;20083;-64
2023/01/13 14:47:33;;;;;;;15.63;13.57;;;;;;;;;;10280588;28;20474;-64
2023/01/13 14:52:33;;;;;;;25.73;23.15;;;;;;;;;;10261658;28;20076;-63
2023/01/13 14:57:33;;;;;;;35.38;29.48;;;;;;;;;;10258453;28;20080;-62
2023/01/13 15:02:46;;;;;;;54.03;35.47;;;;;;;;;;10267776;28;20462;-63
2023/01/13 15:07:49;;;;;;;37.40;28.05;;;;;;;;;;10269337;28;20088;-63
2023/01/13 15:12:50;;;;;;;21.92;19.52;;;;;;;;;;10262338;28;20071;-64
2023/01/13 15:17:49;;;;;;;14.57;13.07;;;;;;;;;;10270084;28;20071;-64
2023/01/13 15:22:47;;;;;;;19.38;17.35;;;;;;;;;;10272560;28;20084;-64
2023/01/13 15:27:46;;;;;;;24.92;17.65;;;;;;;;;;10274820;28;20075;-63
2023/01/13 15:32:46;;;;;;;23.08;16.60;;;;;;;;;;10272272;28;20068;-64
2023/01/13 15:37:48;;;;;;;26.67;23.77;;;;;;;;;;10263449;28;20061;-63
2023/01/13 15:48:04;;;;;;;88.07;70.60;;;;;;;;;;10259985;28;20075;-63
2023/01/13 15:53:02;;;;;;;27.83;22.77;;;;;;;;;;10275265;28;20079;-64
2023/01/13 15:58:01;;;;;;;38.63;30.90;;;;;;;;;;10275399;28;20068;-62
2023/01/13 16:02:59;;;;;;;63.47;44.75;;;;;;;;;;10261049;28;20083;-64
2023/01/13 16:07:59;;;;;;;68.63;49.33;;;;;;;;;;10287291;28;20060;-62
2023/01/13 16:12:57;;;;;;;67.55;51.72;;;;;;;;;;10291512;28;20064;-63
2023/01/13 16:17:56;;;;;;;32.85;26.90;;;;;;;;;;10290722;28;20064;-62
2023/01/13 16:22:54;;;;;;;26.40;21.83;;;;;;;;;;10288510;28;20076;-63
2023/01/13 16:27:54;;;;;;;21.38;17.73;;;;;;;;;;10278476;28;20102;-62
2023/01/13 16:32:53;;;;;;;26.95;23.25;;;;;;;;;;10303733;28;20048;-63
2023/01/13 16:37:52;;;;;;;26.40;22.63;;;;;;;;;;10281547;28;20155;-63
2023/01/13 16:42:51;;;;;;;26.60;23.05;;;;;;;;;;10289196;28;20075;-64
2023/01/13 16:47:50;;;;;;;35.80;27.70;;;;;;;;;;10297177;28;20045;-64
2023/01/13 16:52:49;;;;;;;42.65;32.83;;;;;;;;;;10300588;28;20053;-63
2023/01/13 16:57:47;;;;;;;28.33;23.35;;;;;;;;;;10278447;28;20442;-63
2023/01/13 17:02:45;;;;;;;28.45;20.67;;;;;;;;;;10285300;28;20077;-64
2023/01/13 17:07:46;;;;;;;31.15;23.52;;;;;;;;;;10302741;28;20045;-63
2023/01/13 17:12:44;;;;;;;43.83;34.60;;;;;;;;;;10314475;28;20045;-63
2023/01/13 17:17:43;;;;;;;22.83;18.38;;;;;;;;;;10320774;28;20075;-64
2023/01/13 17:22:41;;;;;;;44.00;32.03;;;;;;;;;;10282827;28;20073;-64
2023/01/13 17:27:45;;;;;;;32.85;27.13;;;;;;;;;;10260961;28;20076;-64
2023/01/13 17:32:43;;;;;;;90.60;55.33;;;;;;;;;;10289645;28;20446;-64
2023/01/13 17:37:42;;;;;;;45.47;33.97;;;;;;;;;;10281207;28;20091;-65
2023/01/13 17:42:40;;;;;;;21.52;16.10;;;;;;;;;;10277575;28;20076;-63
2023/01/13 17:47:39;;;;;;;14.45;12.77;;;;;;;;;;10278269;28;20513;-63
2023/01/13 17:52:38;;;;;;;15.77;14.15;;;;;;;;;;10287903;28;20067;-63
2023/01/13 17:57:36;;;;;;;15.80;13.68;;;;;;;;;;10319271;28;20390;-63
2023/01/13 18:02:34;;;;;;;30.58;23.63;;;;;;;;;;10304960;28;20087;-64
2023/01/13 18:07:34;;;;;;;25.90;20.55;;;;;;;;;;10301145;28;20536;-63
2023/01/13 18:12:33;;;;;;;104.35;92.13;;;;;;;;;;10314803;28;20083;-64
2023/01/13 18:17:31;;;;;;;29.52;25.23;;;;;;;;;;10292200;28;20469;-63
2023/01/13 18:27:46;;;;;;;14.70;13.07;;;;;;;;;;10276371;28;20069;-64
2023/01/13 18:32:45;;;;;;;10.40;9.07;;;;;;;;;;10281482;28;20064;-63
2023/01/13 18:37:43;;;;;;;15.02;12.15;;;;;;;;;;10306659;28;20041;-63
2023/01/13 18:42:54;;;;;;;19.35;17.38;;;;;;;;;;10288756;28;20108;-63
2023/01/13 18:47:55;;;;;;;23.45;18.08;;;;;;;;;;10275148;28;20449;-64
2023/01/13 18:52:53;;;;;;;15.40;12.25;;;;;;;;;;10261943;28;20091;-64
2023/01/13 18:57:52;;;;;;;8.88;8.07;;;;;;;;;;10291574;28;20080;-63
2023/01/13 19:02:52;;;;;;;8.30;7.35;;;;;;;;;;10315505;28;20520;-64
2023/01/13 19:08:04;;;;;;;10.27;9.27;;;;;;;;;;10288535;28;20048;-63
2023/01/13 19:13:03;;;;;;;22.17;14.70;;;;;;;;;;10289414;28;20055;-63
2023/01/13 19:18:01;;;;;;;33.60;24.98;;;;;;;;;;10315195;28;20068;-64
2023/01/13 19:22:59;;;;;;;16.05;13.63;;;;;;;;;;10314279;28;20520;-63
2023/01/13 19:27:58;;;;;;;11.70;10.57;;;;;;;;;;10290581;28;20088;-64
2023/01/13 19:32:57;;;;;;;10.60;7.80;;;;;;;;;;10282201;28;20064;-64
2023/01/13 19:37:55;;;;;;;33.42;23.25;;;;;;;;;;10291195;28;20041;-64
2023/01/13 19:48:09;;;;;;;;;;;;;;;;;;10300203;28;20584;-65
2023/01/13 19:53:14;;;;;;;119.63;79.20;;;;;;;;;;10286823;28;20025;-63
2023/01/13 19:58:12;;;;;;;80.75;55.22;;;;;;;;;;10309967;28;20044;-63
2023/01/13 20:03:10;;;;;;;79.40;61.30;;;;;;;;;;10312212;28;20075;-63
2023/01/13 20:08:10;;;;;;;31.38;25.83;;;;;;;;;;10313547;28;20072;-65
2023/01/13 20:13:09;;;;;;;24.00;18.35;;;;;;;;;;10295695;28;20069;-65
2023/01/13 20:18:07;;;;;;;39.03;27.23;;;;;;;;;;10270400;28;20071;-63
2023/01/13 20:23:05;;;;;;;99.30;61.70;;;;;;;;;;10263528;28;20059;-64
2023/01/13 20:28:06;;;;;;;67.47;40.28;;;;;;;;;;10294547;28;20066;-63
2023/01/13 20:33:05;;;;;;;82.68;53.95;;;;;;;;;;10278979;28;20072;-63
2023/01/13 20:38:03;;;;;;;67.88;46.20;;;;;;;;;;10256791;28;20048;-63
2023/01/13 20:43:01;;;;;;;21.92;17.15;;;;;;;;;;10277249;28;20067;-62
2023/01/13 20:48:01;;;;;;;31.02;22.70;;;;;;;;;;10305183;28;20075;-63
2023/01/13 20:52:59;;;;;;;77.75;43.80;;;;;;;;;;10303456;28;20057;-65
2023/01/13 20:57:57;;;;;;;137.10;73.30;;;;;;;;;;10267774;28;20494;-64
2023/01/13 21:02:56;;;;;;;83.97;51.78;;;;;;;;;;10285205;28;20040;-64
2023/01/13 21:07:55;;;;;;;118.57;65.90;;;;;;;;;;10301281;28;20513;-64
2023/01/13 21:23:34;;;;;;;9.15;8.15;;;;;;;;;;10318265;28;20509;-64
2023/01/13 21:28:35;;;;;;;7.93;7.22;;;;;;;;;;10301857;28;20052;-64
2023/01/13 21:33:33;;;;;;;8.15;7.40;;;;;;;;;;10289386;28;20045;-64
2023/01/13 21:38:31;;;;;;;7.90;7.10;;;;;;;;;;10293695;28;20045;-65
2023/01/13 21:48:46;;;;;;;16.67;12.07;;;;;;;;;;10302099;28;20033;-64
2023/01/13 21:53:45;;;;;;;20.98;16.77;;;;;;;;;;10288102;28;20081;-64
2023/01/13 21:58:44;;;;;;;19.48;14.70;;;;;;;;;;10264458;28;20072;-64
2023/01/13 22:08:59;;;;;;;14.15;12.70;;;;;;;;;;10261442;28;20064;-64
2023/01/13 22:14:08;;;;;;;14.13;12.00;;;;;;;;;;10257661;28;20099;-64
2023/01/13 22:19:08;;;;;;;13.20;11.30;;;;;;;;;;10260820;28;20470;-64
2023/01/13 22:24:07;;;;;;;13.65;11.70;;;;;;;;;;10262756;28;20072;-63
2023/01/13 22:29:06;;;;;;;13.35;11.27;;;;;;;;;;10272509;22;20077;-67
2023/01/13 22:34:04;;;;;;;40.53;26.48;;;;;;;;;;10215480;28;20069;-67
2023/01/13 22:39:03;;;;;;;64.40;39.40;;;;;;;;;;10198868;28;20075;-67
2023/01/13 22:44:01;;;;;;;47.65;30.15;;;;;;;;;;10218461;28;20524;-67
2023/01/13 22:49:01;;;;;;;33.72;25.65;;;;;;;;;;10216687;28;20341;-66
2023/01/13 22:53:59;;;;;;;34.08;26.55;;;;;;;;;;10214250;28;20057;-66
2023/01/13 22:58:59;;;;;;;30.50;23.35;;;;;;;;;;10207871;28;20793;-67
2023/01/13 23:03:57;;;;;;;32.22;26.45;;;;;;;;;;10215461;28;20115;-68
2023/01/13 23:08:57;;;;;;;31.42;24.95;;;;;;;;;;10227398;28;20065;-66
2023/01/13 23:13:56;;;;;;;34.97;25.83;;;;;;;;;;10206300;28;20482;-68
2023/01/13 23:18:55;;;;;;;33.88;26.83;;;;;;;;;;10207816;28;20081;-67
2023/01/13 23:23:53;;;;;;;35.97;24.60;;;;;;;;;;10207736;28;20065;-67
2023/01/13 23:28:53;;;;;;;48.17;32.50;;;;;;;;;;10211241;28;20470;-67
2023/01/13 23:33:54;;;;;;;40.72;28.75;;;;;;;;;;10208068;28;20065;-69
2023/01/13 23:38:52;;;;;;;35.72;27.45;;;;;;;;;;10209399;28;20461;-68
2023/01/13 23:43:51;;;;;;;34.80;27.33;;;;;;;;;;10212012;28;20049;-67
2023/01/13 23:48:51;;;;;;;35.88;25.55;;;;;;;;;;10213014;28;20072;-68
2023/01/13 23:53:50;;;;;;;35.10;25.00;;;;;;;;;;10217117;28;20069;-68
2023/01/13 23:58:48;;;;;;;47.45;31.27;;;;;;;;;;10210311;28;20073;-67
